Time;durP1;ratioP1;P1;durP2;ratioP2;P2;SDS_P1;SDS_P2;PMS_P1;PMS_P2;Temp;Humidity;BMP_temperature;BMP_pressure;BME280_temperature;BME280_humidity;BME280_pressure;Samples;Min_cycle;Max_cycle;Signal;HPM_P1;HPM_P2
2024/04/14 00:00:53;;;;;;;1999.90;999.90;;;17.00;59.70;;;;;;5414514;26;20112;-77
2024/04/14 00:03:19;;;;;;;1999.90;999.90;;;16.90;60.10;;;;;;5418458;26;20345;-77
2024/04/14 00:05:45;;;;;;;1999.90;999.90;;;16.90;60.60;;;;;;5422995;26;20022;-76
2024/04/14 00:08:11;;;;;;;1999.90;999.90;;;16.80;60.80;;;;;;5420230;26;20018;-76
2024/04/14 00:10:36;;;;;;;1999.90;999.90;;;16.70;61.20;;;;;;5412725;26;20058;-76
2024/04/14 00:13:02;;;;;;;1999.90;999.90;;;16.70;61.80;;;;;;5423189;26;20744;-77
2024/04/14 00:15:28;;;;;;;1999.90;999.90;;;16.60;62.00;;;;;;5415712;26;20280;-76
2024/04/14 00:17:54;;;;;;;1999.90;999.90;;;16.60;62.40;;;;;;5409034;26;20003;-75
2024/04/14 00:20:19;;;;;;;1999.90;999.90;;;16.50;63.00;;;;;;5411312;26;20072;-75
2024/04/14 00:22:45;;;;;;;1999.90;999.90;;;16.40;63.80;;;;;;5412698;26;20003;-75
2024/04/14 00:25:12;;;;;;;1999.90;999.90;;;16.30;64.30;;;;;;5415614;26;19996;-75
2024/04/14 00:27:37;;;;;;;;;;;16.30;64.40;;;;;;5421801;26;20000;-75
2024/04/14 00:30:04;;;;;;;1999.90;999.90;;;16.30;64.70;;;;;;5423062;26;19931;-75
2024/04/14 00:32:29;;;;;;;1999.90;999.90;;;16.30;64.90;;;;;;5423597;26;20024;-75
2024/04/14 00:34:55;;;;;;;1999.90;999.90;;;16.20;65.30;;;;;;5408951;26;20004;-75
2024/04/14 00:37:21;;;;;;;1999.90;999.90;;;16.20;65.60;;;;;;5410297;26;20010;-75
2024/04/14 00:39:46;;;;;;;1999.90;999.90;;;16.10;66.00;;;;;;5423787;26;20002;-76
2024/04/14 00:42:12;;;;;;;1999.90;999.90;;;16.20;66.30;;;;;;5418927;26;19995;-76
2024/04/14 00:44:38;;;;;;;1999.90;999.90;;;16.10;66.50;;;;;;5412399;26;20010;-75
2024/04/14 00:47:05;;;;;;;1999.90;999.90;;;16.10;66.90;;;;;;5422450;26;20684;-75
2024/04/14 00:49:31;;;;;;;1999.90;999.90;;;15.90;67.60;;;;;;5423448;26;20010;-75
2024/04/14 00:52:02;;;;;;;1999.90;999.90;;;16.00;67.80;;;;;;5426660;26;19992;-75
2024/04/14 00:54:33;;;;;;;1999.90;999.90;;;16.00;67.80;;;;;;5425444;26;20290;-76
2024/04/14 00:57:03;;;;;;;1999.90;999.90;;;16.00;67.90;;;;;;5412627;26;20014;-76
2024/04/14 00:59:30;;;;;;;1999.90;999.90;;;16.00;68.00;;;;;;5429527;26;19998;-76
2024/04/14 01:01:56;;;;;;;1999.90;999.90;;;15.80;68.60;;;;;;5424820;26;19995;-76
2024/04/14 01:04:22;;;;;;;1999.90;999.90;;;15.80;68.90;;;;;;5423417;26;19991;-76
2024/04/14 01:06:48;;;;;;;1999.90;999.90;;;15.80;69.20;;;;;;5414827;26;19995;-76
2024/04/14 01:09:14;;;;;;;1999.90;999.90;;;15.60;69.80;;;;;;5413875;26;20015;-76
2024/04/14 01:11:40;;;;;;;1999.90;999.90;;;15.60;69.70;;;;;;5416897;26;20875;-76
2024/04/14 01:14:07;;;;;;;1999.90;999.90;;;15.80;69.10;;;;;;5413378;26;20015;-77
2024/04/14 01:16:36;;;;;;;1999.90;999.90;;;15.70;69.50;;;;;;5431904;26;20672;-77
2024/04/14 01:19:03;;;;;;;1999.90;999.90;;;15.60;69.90;;;;;;5413336;26;20003;-76
2024/04/14 01:21:29;;;;;;;1999.90;999.90;;;15.60;70.20;;;;;;5413352;26;20087;-77
2024/04/14 01:23:55;;;;;;;1999.90;999.90;;;15.50;70.50;;;;;;5415288;26;20015;-77
2024/04/14 01:26:20;;;;;;;1999.90;999.90;;;15.50;71.00;;;;;;5414501;26;20007;-76
2024/04/14 01:28:46;;;;;;;1999.90;999.90;;;15.60;71.10;;;;;;5408315;26;20008;-75
2024/04/14 01:31:12;;;;;;;1999.90;999.90;;;15.50;71.20;;;;;;5414833;26;20018;-75
2024/04/14 01:33:38;;;;;;;1999.90;999.90;;;15.60;71.20;;;;;;5417164;26;19999;-75
2024/04/14 01:36:04;;;;;;;1999.90;999.90;;;15.60;71.40;;;;;;5433609;26;19994;-75
2024/04/14 01:38:29;;;;;;;1999.90;999.90;;;15.60;71.30;;;;;;5414018;26;20014;-76
2024/04/14 01:40:55;;;;;;;1999.90;999.90;;;15.60;71.20;;;;;;5411762;26;20229;-76
2024/04/14 01:43:21;;;;;;;1999.90;999.90;;;15.60;71.60;;;;;;5423894;26;20435;-76
2024/04/14 01:45:46;;;;;;;1999.90;999.90;;;15.50;72.00;;;;;;5412122;26;20017;-76
2024/04/14 01:48:12;;;;;;;1999.90;999.90;;;15.50;72.50;;;;;;5418398;26;20007;-75
2024/04/14 01:50:38;;;;;;;1999.90;999.90;;;15.40;73.20;;;;;;5417296;26;20452;-76
2024/04/14 01:53:04;;;;;;;1999.90;999.90;;;15.30;73.50;;;;;;5426063;26;20013;-76
2024/04/14 01:55:29;;;;;;;1999.90;999.90;;;15.30;73.90;;;;;;5423304;26;20000;-77
2024/04/14 01:57:57;;;;;;;1999.90;999.90;;;15.20;74.40;;;;;;5425438;26;20002;-77
2024/04/14 02:00:23;;;;;;;1999.90;999.90;;;15.10;74.90;;;;;;5411038;26;20077;-77
2024/04/14 02:02:51;;;;;;;1999.90;999.90;;;15.20;75.10;;;;;;5410967;26;20011;-76
2024/04/14 02:05:18;;;;;;;1999.90;999.90;;;15.20;75.10;;;;;;5422754;26;20458;-77
2024/04/14 02:07:43;;;;;;;1999.90;999.90;;;15.20;76.10;;;;;;5412269;26;19996;-77
2024/04/14 02:10:09;;;;;;;1999.90;999.90;;;15.20;75.60;;;;;;5423326;26;20537;-76
2024/04/14 02:12:35;;;;;;;1999.90;999.90;;;15.10;75.70;;;;;;5411848;26;20055;-77
2024/04/14 02:15:01;;;;;;;1999.90;999.90;;;15.20;75.80;;;;;;5418421;26;20011;-76
2024/04/14 02:17:26;;;;;;;1999.90;999.90;;;15.10;76.10;;;;;;5411501;26;20006;-76
2024/04/14 02:19:52;;;;;;;1999.90;999.90;;;15.10;76.30;;;;;;5418871;26;20002;-76
2024/04/14 02:22:18;;;;;;;1999.90;999.90;;;15.00;76.50;;;;;;5414019;26;20849;-76
2024/04/14 02:24:46;;;;;;;1999.90;999.90;;;15.00;76.80;;;;;;5422586;26;20066;-76
2024/04/14 02:27:12;;;;;;;1999.90;999.90;;;15.00;77.20;;;;;;5408499;26;19995;-78
2024/04/14 02:29:37;;;;;;;1999.90;999.90;;;14.90;77.50;;;;;;5416781;26;20003;-77
2024/04/14 02:32:04;;;;;;;1999.90;999.90;;;14.90;77.40;;;;;;5413862;26;20092;-77
2024/04/14 02:34:29;;;;;;;1999.90;999.90;;;14.90;77.30;;;;;;5409107;26;20011;-77
2024/04/14 02:36:55;;;;;;;1999.90;999.90;;;14.90;77.70;;;;;;5426895;26;20781;-78
2024/04/14 02:39:22;;;;;;;1999.90;999.90;;;14.80;78.00;;;;;;5416986;26;20025;-76
2024/04/14 02:41:48;;;;;;;1999.90;999.90;;;14.80;78.30;;;;;;5417761;26;20003;-76
2024/04/14 02:44:16;;;;;;;1999.90;999.90;;;14.70;78.70;;;;;;5422065;26;19995;-77
2024/04/14 02:46:43;;;;;;;1999.90;999.90;;;14.60;79.30;;;;;;5412776;26;19995;-77
2024/04/14 02:49:08;;;;;;;1999.90;999.90;;;14.50;79.60;;;;;;5418893;26;20487;-77
2024/04/14 02:51:34;;;;;;;1999.90;999.90;;;14.40;79.90;;;;;;5418430;26;20099;-76
2024/04/14 02:54:00;;;;;;;1999.90;999.90;;;14.40;80.00;;;;;;5413890;26;20095;-76
2024/04/14 02:56:26;;;;;;;1999.90;999.90;;;14.40;80.30;;;;;;5428630;26;20328;-78
2024/04/14 02:58:51;;;;;;;1999.90;999.90;;;14.40;80.50;;;;;;5420141;26;20011;-77
2024/04/14 03:01:18;;;;;;;1999.90;999.90;;;14.40;80.50;;;;;;5422431;26;20006;-78
2024/04/14 03:03:45;;;;;;;1999.90;999.90;;;14.30;80.60;;;;;;5419758;26;20083;-78
2024/04/14 03:06:11;;;;;;;1999.90;999.90;;;14.30;80.50;;;;;;5426759;26;20075;-77
2024/04/14 03:08:37;;;;;;;1999.90;999.90;;;14.30;80.70;;;;;;5427075;26;20010;-78
2024/04/14 03:11:02;;;;;;;1999.90;999.90;;;14.30;81.10;;;;;;5437712;26;20417;-77
2024/04/14 03:13:29;;;;;;;1999.90;999.90;;;14.20;81.40;;;;;;5428667;26;20000;-78
2024/04/14 03:15:55;;;;;;;1999.90;999.90;;;14.20;81.70;;;;;;5426951;26;19998;-78
2024/04/14 03:18:21;;;;;;;1999.90;999.90;;;14.10;81.90;;;;;;5426235;26;20730;-77
2024/04/14 03:21:00;;;;;;;1999.90;999.90;;;14.10;82.40;;;;;;5413651;26;20015;-76
2024/04/14 03:23:27;;;;;;;1999.90;999.90;;;14.00;82.90;;;;;;5417670;26;20244;-79
2024/04/14 03:25:53;;;;;;;1999.90;999.90;;;14.00;83.40;;;;;;5417642;26;20006;-77
2024/04/14 03:28:21;;;;;;;1999.90;999.90;;;14.00;83.70;;;;;;5419024;26;20560;-77
2024/04/14 03:30:47;;;;;;;1999.90;999.90;;;13.90;84.10;;;;;;5422027;26;19999;-78
2024/04/14 03:33:13;;;;;;;1999.90;999.90;;;14.00;83.90;;;;;;5425215;26;20105;-75
2024/04/14 03:35:39;;;;;;;1999.90;999.90;;;14.00;83.60;;;;;;5415284;26;20002;-78
2024/04/14 03:38:05;;;;;;;1999.90;999.90;;;14.00;84.10;;;;;;5420216;26;19999;-78
2024/04/14 03:40:31;;;;;;;1999.90;999.90;;;13.90;84.70;;;;;;5423219;26;20002;-78
2024/04/14 03:42:57;;;;;;;1999.90;999.90;;;13.80;85.10;;;;;;5418585;26;20034;-77
2024/04/14 03:45:24;;;;;;;1999.90;999.90;;;13.80;85.60;;;;;;5416403;26;20031;-76
2024/04/14 03:47:52;;;;;;;1999.90;999.90;;;13.80;85.60;;;;;;5418056;26;20553;-78
2024/04/14 03:50:18;;;;;;;1999.90;999.90;;;13.80;85.70;;;;;;5424609;26;20943;-76
2024/04/14 03:52:44;;;;;;;1999.90;999.90;;;13.80;85.60;;;;;;5428059;26;20007;-78
2024/04/14 03:55:10;;;;;;;1999.90;999.90;;;13.80;85.70;;;;;;5414056;26;20017;-77
2024/04/14 03:57:35;;;;;;;1999.90;999.90;;;13.80;85.50;;;;;;5428093;26;20467;-78
2024/04/14 04:00:01;;;;;;;1999.90;999.90;;;13.70;86.00;;;;;;5424479;26;20026;-78
2024/04/14 04:02:27;;;;;;;1999.90;999.90;;;13.60;86.40;;;;;;5403770;26;20000;-80
2024/04/14 04:04:53;;;;;;;1999.90;999.90;;;13.60;86.60;;;;;;5420530;26;20426;-78
2024/04/14 04:07:18;;;;;;;1999.90;999.90;;;13.60;87.00;;;;;;5427073;26;20003;-80
2024/04/14 04:09:44;;;;;;;1999.90;999.90;;;13.60;87.40;;;;;;5413186;26;20012;-77
2024/04/14 04:12:10;;;;;;;1999.90;999.90;;;13.50;87.60;;;;;;5415686;26;19999;-76
2024/04/14 04:14:35;;;;;;;1999.90;999.90;;;13.40;87.90;;;;;;5428337;26;20007;-78
2024/04/14 04:17:01;;;;;;;1999.90;999.90;;;13.40;88.40;;;;;;5418897;26;20003;-76
2024/04/14 04:19:26;;;;;;;1999.90;999.90;;;13.50;88.40;;;;;;5415008;26;20090;-77
2024/04/14 04:21:52;;;;;;;1999.90;999.90;;;13.50;88.20;;;;;;5414262;26;20097;-75
2024/04/14 04:24:18;;;;;;;1999.90;999.90;;;13.50;88.10;;;;;;5419379;26;20841;-77
2024/04/14 04:26:44;;;;;;;1999.90;999.90;;;13.50;88.20;;;;;;5409563;26;20031;-80
2024/04/14 04:29:09;;;;;;;1999.90;999.90;;;13.50;88.10;;;;;;5423329;26;20042;-79
2024/04/14 04:31:35;;;;;;;1999.90;999.90;;;13.40;88.30;;;;;;5412376;26;20544;-79
2024/04/14 04:34:01;;;;;;;1999.90;999.90;;;13.50;88.30;;;;;;5414362;26;20006;-78
2024/04/14 04:36:26;;;;;;;1999.90;999.90;;;13.40;88.50;;;;;;5417195;26;20011;-82
2024/04/14 04:38:55;;;;;;;1999.90;999.90;;;13.40;88.70;;;;;;5423559;26;20537;-73
2024/04/14 04:41:21;;;;;;;1999.90;999.90;;;13.40;89.20;;;;;;5423909;26;19999;-72
2024/04/14 04:43:47;;;;;;;1999.90;999.90;;;13.40;89.20;;;;;;5414044;26;20461;-73
2024/04/14 04:46:13;;;;;;;1999.90;999.90;;;13.30;89.70;;;;;;5411042;26;20007;-81
2024/04/14 04:48:41;;;;;;;1999.90;999.90;;;13.30;89.60;;;;;;5419807;26;20019;-76
2024/04/14 04:51:07;;;;;;;1999.90;999.90;;;13.30;89.70;;;;;;5416006;26;20850;-80
2024/04/14 04:53:32;;;;;;;1999.90;999.90;;;13.30;89.90;;;;;;5428333;26;20077;-80
2024/04/14 04:55:58;;;;;;;1999.90;999.90;;;13.10;90.10;;;;;;5416840;26;20018;-77
2024/04/14 04:58:23;;;;;;;1999.90;999.90;;;13.20;90.20;;;;;;5413235;26;20018;-78
2024/04/14 05:00:54;;;;;;;1999.90;999.90;;;13.20;90.10;;;;;;5409928;26;20000;-79
2024/04/14 05:03:20;;;;;;;1999.90;999.90;;;13.10;90.10;;;;;;5421516;26;19995;-80
2024/04/14 05:05:55;;;;;;;1999.90;999.90;;;13.10;90.20;;;;;;5410075;26;20440;-79
2024/04/14 05:08:23;;;;;;;1999.90;999.90;;;13.10;90.30;;;;;;5423140;26;19999;-76
2024/04/14 05:10:56;;;;;;;1999.90;999.90;;;13.10;90.40;;;;;;5415622;26;20043;-80
2024/04/14 05:13:25;;;;;;;1999.90;999.90;;;13.00;90.60;;;;;;5425307;26;20096;-76
2024/04/14 05:15:51;;;;;;;1999.90;999.90;;;13.00;90.60;;;;;;5411276;26;20006;-77
2024/04/14 05:18:17;;;;;;;1999.90;999.90;;;13.10;90.50;;;;;;5420356;26;20004;-79
2024/04/14 05:20:43;;;;;;;1999.90;999.90;;;13.10;90.40;;;;;;5425406;26;20007;-78
2024/04/14 05:23:10;;;;;;;1999.90;999.90;;;13.20;90.30;;;;;;5421412;26;20224;-78
2024/04/14 05:25:36;;;;;;;1999.90;999.90;;;13.40;90.00;;;;;;5419283;26;19995;-78
2024/04/14 05:28:02;;;;;;;1999.90;999.90;;;13.90;87.20;;;;;;5419965;26;20081;-79
2024/04/14 05:30:28;;;;;;;1999.90;999.90;;;14.00;86.00;;;;;;5409720;26;20057;-78
2024/04/14 05:32:57;;;;;;;1999.90;999.90;;;13.70;87.30;;;;;;5412070;26;20004;-78
2024/04/14 05:35:23;;;;;;;1999.90;999.90;;;13.60;88.40;;;;;;5420176;26;20617;-79
2024/04/14 05:37:49;;;;;;;1999.90;999.90;;;13.60;88.70;;;;;;5411772;26;20000;-78
2024/04/14 05:40:15;;;;;;;1999.90;999.90;;;14.00;87.50;;;;;;5421334;26;20557;-79
2024/04/14 05:42:40;;;;;;;1999.90;999.90;;;14.30;86.30;;;;;;5415068;26;20000;-78
2024/04/14 05:45:10;;;;;;;1999.90;999.90;;;14.80;84.20;;;;;;5411344;26;20126;-78
2024/04/14 05:47:36;;;;;;;1999.90;999.90;;;15.00;83.00;;;;;;5409030;26;20545;-79
2024/04/14 05:50:02;;;;;;;1999.90;999.90;;;15.20;81.90;;;;;;5413926;26;20011;-78
2024/04/14 05:52:27;;;;;;;1999.90;999.90;;;15.50;81.40;;;;;;5411508;26;20088;-79
2024/04/14 05:54:53;;;;;;;1999.90;999.90;;;15.70;80.40;;;;;;5412248;26;19995;-78
2024/04/14 05:57:19;;;;;;;1999.90;999.90;;;15.90;78.90;;;;;;5413133;26;20000;-78
2024/04/14 05:59:45;;;;;;;1999.90;999.90;;;16.00;77.90;;;;;;5420464;26;20059;-78
2024/04/14 06:02:11;;;;;;;1999.90;999.90;;;16.10;78.00;;;;;;5419274;26;20014;-78
2024/04/14 06:04:37;;;;;;;1999.90;999.90;;;16.40;77.60;;;;;;5414861;26;20010;-78
2024/04/14 06:07:03;;;;;;;1999.90;999.90;;;16.40;77.10;;;;;;5425406;26;20010;-78
2024/04/14 06:09:29;;;;;;;1999.90;999.90;;;16.60;76.30;;;;;;5420072;26;20220;-78
2024/04/14 06:11:55;;;;;;;1999.90;999.90;;;16.70;76.50;;;;;;5421418;26;20109;-78
2024/04/14 06:14:22;;;;;;;1999.90;999.90;;;16.30;76.60;;;;;;5417289;26;19999;-79
2024/04/14 06:16:48;;;;;;;1999.90;999.90;;;16.10;77.40;;;;;;5426031;26;20018;-77
2024/04/14 06:19:14;;;;;;;1999.90;999.90;;;16.40;76.40;;;;;;5434081;26;20036;-78
2024/04/14 06:21:40;;;;;;;1999.90;999.90;;;16.60;75.60;;;;;;5428368;26;19994;-76
2024/04/14 06:24:06;;;;;;;1999.90;999.90;;;17.20;74.40;;;;;;5412746;26;20663;-77
2024/04/14 06:26:32;;;;;;;1999.90;999.90;;;17.40;74.20;;;;;;5420864;26;20102;-78
2024/04/14 06:28:57;;;;;;;1999.90;999.90;;;17.90;71.30;;;;;;5409269;26;19996;-78
2024/04/14 06:31:23;;;;;;;1999.90;999.90;;;17.80;71.20;;;;;;5419944;26;20289;-77
2024/04/14 06:33:49;;;;;;;1999.90;999.90;;;18.20;70.50;;;;;;5419437;26;20010;-78
2024/04/14 06:36:14;;;;;;;1999.90;999.90;;;18.80;69.50;;;;;;5432907;26;21093;-78
2024/04/14 06:38:44;;;;;;;1999.90;999.90;;;18.60;69.30;;;;;;5425091;26;19995;-78
2024/04/14 06:41:10;;;;;;;1999.90;999.90;;;18.70;67.70;;;;;;5431658;26;20014;-78
2024/04/14 06:43:36;;;;;;;;;;;18.80;67.80;;;;;;5427069;26;20081;-78
2024/04/14 06:46:02;;;;;;;;;;;18.30;67.70;;;;;;5432882;26;19925;-79
2024/04/14 06:48:27;;;;;;;1999.90;999.90;;;18.40;68.00;;;;;;5427935;26;19925;-79
2024/04/14 06:50:53;;;;;;;1999.90;999.90;;;19.50;64.90;;;;;;5422652;26;20072;-78
2024/04/14 06:53:21;;;;;;;1999.90;999.90;;;19.90;63.40;;;;;;5423463;26;20450;-79
2024/04/14 06:55:52;;;;;;;1999.90;999.90;;;20.90;60.90;;;;;;5413258;26;20042;-77
2024/04/14 06:58:18;;;;;;;1999.90;999.90;;;20.90;58.70;;;;;;5421479;26;19999;-79
2024/04/14 07:00:44;;;;;;;1999.90;999.90;;;20.60;61.00;;;;;;5411415;26;20014;-79
2024/04/14 07:03:09;;;;;;;1999.90;999.90;;;20.70;60.70;;;;;;5420549;26;20755;-79
2024/04/14 07:05:35;;;;;;;1999.90;999.90;;;21.50;58.20;;;;;;5411733;26;20814;-79
2024/04/14 07:08:01;;;;;;;1999.90;999.90;;;22.10;57.20;;;;;;5430708;26;20314;-77
2024/04/14 07:10:27;;;;;;;1999.90;999.90;;;22.40;55.40;;;;;;5410917;26;20076;-79
2024/04/14 07:12:53;;;;;;;1999.90;999.90;;;22.10;56.20;;;;;;5411594;26;20011;-78
2024/04/14 07:15:19;;;;;;;1999.90;999.90;;;22.90;54.30;;;;;;5411945;26;19999;-78
2024/04/14 07:17:45;;;;;;;1999.90;999.90;;;23.20;52.70;;;;;;5429308;26;20004;-78
2024/04/14 07:20:11;;;;;;;1999.90;999.90;;;23.30;52.60;;;;;;5412861;26;19999;-77
2024/04/14 07:22:36;;;;;;;;;;;23.60;52.00;;;;;;5411462;26;20009;-78
2024/04/14 07:25:02;;;;;;;1999.90;999.90;;;24.40;50.70;;;;;;5414715;26;19932;-79
2024/04/14 07:27:27;;;;;;;1999.90;999.90;;;23.50;49.80;;;;;;5426227;26;19998;-79
2024/04/14 07:29:53;;;;;;;;;;;23.50;51.10;;;;;;5414980;26;20004;-79
2024/04/14 07:32:19;;;;;;;1999.90;999.90;;;24.80;50.20;;;;;;5409242;26;19932;-79
2024/04/14 07:34:44;;;;;;;;;;;25.40;46.90;;;;;;5414895;26;19995;-79
2024/04/14 07:37:10;;;;;;;1999.90;999.90;;;26.00;46.00;;;;;;5419807;26;19993;-79
2024/04/14 07:39:35;;;;;;;;;;;27.10;46.50;;;;;;5418658;26;20059;-79
2024/04/14 07:42:04;;;;;;;1999.90;999.90;;;27.20;43.90;;;;;;5409674;26;19925;-79
2024/04/14 07:44:30;;;;;;;1999.90;999.90;;;26.90;42.20;;;;;;5414363;26;20070;-79
2024/04/14 07:46:56;;;;;;;1999.90;999.90;;;26.20;43.40;;;;;;5408573;26;20072;-79
2024/04/14 07:49:22;;;;;;;1999.90;999.90;;;26.90;42.00;;;;;;5414170;26;20539;-78
2024/04/14 07:51:49;;;;;;;1999.90;999.90;;;27.80;41.90;;;;;;5422068;26;20396;-77
2024/04/14 07:54:15;;;;;;;1999.90;999.90;;;27.70;43.70;;;;;;5414438;26;20370;-79
2024/04/14 07:56:40;;;;;;;1999.90;999.90;;;28.10;41.40;;;;;;5423872;26;19998;-80
2024/04/14 07:59:06;;;;;;;1999.90;999.90;;;28.10;42.20;;;;;;5414904;26;20024;-79
2024/04/14 08:01:32;;;;;;;1999.90;999.90;;;27.80;40.50;;;;;;5426236;26;19995;-78
2024/04/14 08:03:57;;;;;;;1999.90;999.90;;;27.80;42.20;;;;;;5428321;26;20000;-77
2024/04/14 08:06:23;;;;;;;1999.90;999.90;;;28.10;41.20;;;;;;5431473;26;20598;-79
2024/04/14 08:08:49;;;;;;;1999.90;999.90;;;27.80;41.90;;;;;;5425644;26;20007;-79
2024/04/14 08:11:15;;;;;;;1999.90;999.90;;;28.20;40.70;;;;;;5418619;26;20759;-79
2024/04/14 08:13:40;;;;;;;1999.90;999.90;;;28.20;42.00;;;;;;5421647;26;20950;-79
2024/04/14 08:16:06;;;;;;;1999.90;999.90;;;28.50;41.90;;;;;;5423860;26;19995;-79
2024/04/14 08:18:32;;;;;;;1999.90;999.90;;;28.60;40.80;;;;;;5420332;26;19995;-78
2024/04/14 08:21:02;;;;;;;1999.90;999.90;;;29.00;41.10;;;;;;5423041;26;20068;-79
2024/04/14 08:23:28;;;;;;;1999.90;999.90;;;29.70;38.90;;;;;;5422306;26;20007;-79
2024/04/14 08:25:54;;;;;;;1999.90;999.90;;;30.50;38.60;;;;;;5422649;26;20087;-77
2024/04/14 08:28:19;;;;;;;1999.90;999.90;;;31.70;38.20;;;;;;5424243;26;20323;-79
2024/04/14 08:30:45;;;;;;;1999.90;999.90;;;31.70;37.10;;;;;;5420511;26;20846;-79
2024/04/14 08:33:11;;;;;;;1999.90;999.90;;;31.60;36.50;;;;;;5411743;26;20007;-79
2024/04/14 08:35:37;;;;;;;1999.90;999.90;;;30.40;36.80;;;;;;5419553;26;20004;-78
2024/04/14 08:38:02;;;;;;;1999.90;999.90;;;28.20;40.90;;;;;;5425654;26;20021;-77
2024/04/14 08:40:28;;;;;;;1999.90;999.90;;;28.70;41.90;;;;;;5418035;26;20000;-78
2024/04/14 08:42:54;;;;;;;1999.90;999.90;;;30.90;39.20;;;;;;5427238;26;20754;-79
2024/04/14 08:45:24;;;;;;;1999.90;999.90;;;31.80;38.60;;;;;;5416224;26;20010;-78
2024/04/14 08:47:53;;;;;;;1999.90;999.90;;;32.80;36.60;;;;;;5439134;26;19998;-78
2024/04/14 08:50:22;;;;;;;1999.90;999.90;;;33.00;36.00;;;;;;5423331;26;20003;-78
2024/04/14 08:52:48;;;;;;;1999.90;999.90;;;32.90;35.20;;;;;;5426304;26;19996;-78
2024/04/14 08:55:14;;;;;;;1999.90;999.90;;;34.00;35.10;;;;;;5416884;26;19999;-78
2024/04/14 08:57:40;;;;;;;1999.90;999.90;;;34.70;36.40;;;;;;5416577;26;20014;-79
2024/04/14 09:00:15;;;;;;;1999.90;999.90;;;33.90;34.80;;;;;;5421774;26;20100;-79
2024/04/14 09:02:41;;;;;;;1999.90;999.90;;;34.20;34.60;;;;;;5419779;26;20080;-79
2024/04/14 09:05:08;;;;;;;1999.90;999.90;;;33.70;32.40;;;;;;5422873;26;20530;-78
2024/04/14 09:07:34;;;;;;;1999.90;999.90;;;34.20;33.10;;;;;;5424756;26;20038;-78
2024/04/14 09:10:00;;;;;;;1999.90;999.90;;;33.20;35.30;;;;;;5424687;26;20761;-78
2024/04/14 09:12:25;;;;;;;1999.90;999.90;;;32.30;36.10;;;;;;5415473;26;19999;-79
2024/04/14 09:14:52;;;;;;;1999.90;999.90;;;32.50;35.30;;;;;;5414158;26;20007;-77
2024/04/14 09:17:18;;;;;;;1999.90;999.90;;;33.80;35.20;;;;;;5420389;26;20017;-79
2024/04/14 09:19:44;;;;;;;1999.90;999.90;;;34.40;33.30;;;;;;5424959;26;20016;-78
2024/04/14 09:22:10;;;;;;;1999.90;999.90;;;34.60;33.80;;;;;;5414039;26;20022;-79
2024/04/14 09:24:36;;;;;;;1999.90;999.90;;;34.00;32.40;;;;;;5423003;26;20143;-78
2024/04/14 09:27:02;;;;;;;1999.90;999.90;;;35.20;34.60;;;;;;5414387;26;20003;-79
2024/04/14 09:29:27;;;;;;;1999.90;999.90;;;35.60;32.70;;;;;;5421308;26;20018;-78
2024/04/14 09:31:53;;;;;;;1999.90;999.90;;;35.90;34.20;;;;;;5416449;26;19999;-78
2024/04/14 09:34:19;;;;;;;1999.90;999.90;;;36.00;33.70;;;;;;5420736;26;19999;-78
2024/04/14 09:36:47;;;;;;;1999.90;999.90;;;36.10;33.40;;;;;;5418829;26;19999;-78
2024/04/14 09:39:13;;;;;;;1999.90;999.90;;;36.20;32.60;;;;;;5429143;26;19999;-78
2024/04/14 09:41:41;;;;;;;1999.90;999.90;;;36.20;34.60;;;;;;5440681;26;20035;-77
2024/04/14 09:44:09;;;;;;;1999.90;999.90;;;36.40;32.40;;;;;;5416298;26;20015;-79
2024/04/14 09:46:37;;;;;;;1999.90;999.90;;;36.60;33.00;;;;;;5417986;26;20011;-78
2024/04/14 09:49:04;;;;;;;1999.90;999.90;;;37.20;32.50;;;;;;5419406;26;19999;-79
2024/04/14 09:51:30;;;;;;;1999.90;999.90;;;36.80;30.20;;;;;;5412212;26;20099;-78
2024/04/14 09:53:58;;;;;;;1999.90;999.90;;;36.60;32.70;;;;;;5411617;26;20003;-79
2024/04/14 09:56:25;;;;;;;1999.90;999.90;;;36.70;31.70;;;;;;5420049;26;20088;-78
2024/04/14 09:58:54;;;;;;;1999.90;999.90;;;37.00;32.70;;;;;;5414460;26;20003;-78
2024/04/14 10:01:24;;;;;;;1999.90;999.90;;;36.50;31.00;;;;;;5421098;26;20027;-77
2024/04/14 10:03:55;;;;;;;1999.90;999.90;;;36.80;31.80;;;;;;5416382;26;20014;-78
2024/04/14 10:06:22;;;;;;;1999.90;999.90;;;36.20;31.70;;;;;;5422403;26;20015;-77
2024/04/14 10:08:51;;;;;;;1999.90;999.90;;;36.40;32.20;;;;;;5428060;26;20013;-77
2024/04/14 10:11:17;;;;;;;1999.90;999.90;;;35.70;33.50;;;;;;5416535;26;20026;-78
2024/04/14 10:13:51;;;;;;;1999.90;999.90;;;35.70;35.00;;;;;;5410561;26;20402;-78
2024/04/14 10:16:18;;;;;;;1999.90;999.90;;;34.50;34.20;;;;;;5426913;26;20018;-78
2024/04/14 10:18:46;;;;;;;1999.90;999.90;;;33.60;36.20;;;;;;5417697;26;20076;-78
2024/04/14 10:21:13;;;;;;;1999.90;999.90;;;32.80;36.90;;;;;;5410096;26;20014;-77
2024/04/14 10:23:58;;;;;;;1999.90;999.90;;;31.80;39.30;;;;;;5409565;26;20010;-77
2024/04/14 10:26:24;;;;;;;1999.90;999.90;;;31.20;37.10;;;;;;5409272;26;21240;-78
2024/04/14 10:28:54;;;;;;;1999.90;999.90;;;31.00;39.50;;;;;;5408522;26;20008;-78
2024/04/14 10:31:25;;;;;;;1999.90;999.90;;;30.80;41.20;;;;;;5418100;26;20027;-78
2024/04/14 10:34:05;;;;;;;1999.90;999.90;;;30.50;41.20;;;;;;5405609;26;20328;-78
2024/04/14 10:36:36;;;;;;;1999.90;999.90;;;30.10;43.30;;;;;;5411429;26;20108;-77
2024/04/14 10:39:03;;;;;;;1999.90;999.90;;;29.70;44.20;;;;;;5405675;26;20006;-79
2024/04/14 10:41:29;;;;;;;1999.90;999.90;;;29.80;42.90;;;;;;5410001;26;19998;-78
2024/04/14 10:43:55;;;;;;;;;;;29.30;42.90;;;;;;5406943;26;20584;-77
2024/04/14 10:46:21;;;;;;;1999.90;999.90;;;29.30;44.40;;;;;;5410000;26;20354;-78
2024/04/14 10:48:46;;;;;;;;;;;29.30;44.60;;;;;;5409681;26;19999;-78
2024/04/14 10:51:15;;;;;;;1999.90;999.90;;;28.80;46.00;;;;;;5432663;26;20708;-78
2024/04/14 10:53:41;;;;;;;1999.90;999.90;;;28.50;46.40;;;;;;5414468;26;20008;-78
2024/04/14 10:56:06;;;;;;;;;;;28.40;46.20;;;;;;5414226;26;20354;-78
2024/04/14 10:58:33;;;;;;;1999.90;999.90;;;28.60;45.90;;;;;;5417440;26;19989;-78
2024/04/14 11:01:00;;;;;;;1999.90;999.90;;;28.60;45.50;;;;;;5410052;26;20076;-78
2024/04/14 11:03:29;;;;;;;1999.90;999.90;;;28.40;47.20;;;;;;5413119;26;20483;-78
2024/04/14 11:05:56;;;;;;;1999.90;999.90;;;28.50;47.20;;;;;;5414612;26;20547;-78
2024/04/14 11:08:23;;;;;;;1999.90;999.90;;;28.50;46.00;;;;;;5438099;26;19995;-79
2024/04/14 11:10:50;;;;;;;1999.90;999.90;;;28.60;45.70;;;;;;5406811;26;20012;-78
2024/04/14 11:13:17;;;;;;;1999.90;999.90;;;28.00;46.80;;;;;;5413652;26;20350;-78
2024/04/14 11:15:43;;;;;;;1999.90;999.90;;;28.10;46.90;;;;;;5412182;26;19999;-78
2024/04/14 11:18:08;;;;;;;;;;;27.90;50.00;;;;;;5435068;26;20010;-76
2024/04/14 11:20:34;;;;;;;1999.90;999.90;;;28.00;49.00;;;;;;5414497;26;19932;-78
2024/04/14 11:23:05;;;;;;;1999.90;999.90;;;28.10;48.60;;;;;;5418791;26;20088;-78
2024/04/14 11:25:31;;;;;;;1999.90;999.90;;;28.20;48.80;;;;;;5414091;26;20003;-78
2024/04/14 11:27:57;;;;;;;;;;;28.20;48.50;;;;;;5421047;26;20006;-79
2024/04/14 11:30:29;;;;;;;1999.90;999.90;;;27.90;45.80;;;;;;5419752;26;19932;-79
2024/04/14 11:33:00;;;;;;;1999.90;999.90;;;27.90;49.10;;;;;;5432219;26;19998;-77
2024/04/14 11:35:26;;;;;;;1999.90;999.90;;;27.90;50.00;;;;;;5417740;26;20027;-77
2024/04/14 11:37:54;;;;;;;1999.90;999.90;;;27.70;47.70;;;;;;5423348;26;20010;-77
2024/04/14 11:40:23;;;;;;;1999.90;999.90;;;27.50;51.30;;;;;;5418174;26;20005;-78
2024/04/14 11:42:49;;;;;;;1999.90;999.90;;;27.50;50.50;;;;;;5420006;26;20445;-79
2024/04/14 11:45:16;;;;;;;1999.90;999.90;;;27.30;51.80;;;;;;5428473;26;20014;-78
2024/04/14 11:47:41;;;;;;;1999.90;999.90;;;27.30;52.50;;;;;;5418237;26;20000;-78
2024/04/14 11:50:08;;;;;;;1999.90;999.90;;;27.20;50.10;;;;;;5414266;26;20064;-78
2024/04/14 11:52:34;;;;;;;1999.90;999.90;;;27.00;50.70;;;;;;5416462;26;20014;-78
2024/04/14 11:55:05;;;;;;;1999.90;999.90;;;26.90;49.40;;;;;;5421104;26;19998;-78
2024/04/14 11:57:31;;;;;;;1999.90;999.90;;;26.80;48.00;;;;;;5409158;26;20011;-78
2024/04/14 11:59:57;;;;;;;;;;;26.80;54.30;;;;;;5416781;26;20003;-79